Mesa Verde National Park, Colorado
Current Conditions -  °F | °C
As of 7:53 AM on Thursday 30 Oct 2014 (Local Time) from KCEZ Reporting Station
Clear Clear  
Wind Chill: -5°   Ceiling: Unl
Heat Index: -2°   Visibility: 10mi
Dew Point: -7°   Wind: 6mph
Humidity: 67%   Direction: 70°ENE
Pressure: 30.35"   Gusts: NA
Location:  37.1877°N, 108.492°W
Report Text: KCEZ 301353Z AUTO 07005KT 10SM CLR M02/M07 A3035 RMK AO2 SLP272 T10171072
Loading
Personal Weather Stations






























Interactive Weather Map
Tropical Storm Tracking
New forecast layout! Learn more

10-Day Weather Forecast

Advertisements
Track Severe Weather on mobile